createdAt,value
2023-01-26T00:01:16.614Z,99.98
2023-01-26T00:03:43.838Z,100.00
2023-01-26T00:06:12.963Z,100.00
2023-01-26T00:08:42.176Z,100.00
2023-01-26T00:11:10.572Z,100.00
2023-01-26T00:13:37.417Z,100.00
2023-01-26T00:16:05.105Z,100.00
2023-01-26T00:18:31.966Z,100.00
2023-01-26T00:21:00.619Z,100.00
2023-01-26T00:23:29.514Z,100.00
2023-01-26T00:25:56.395Z,100.00
2023-01-26T00:28:23.154Z,100.00
2023-01-26T00:30:49.863Z,100.00
2023-01-26T00:33:17.255Z,100.00
2023-01-26T00:35:44.576Z,100.00
2023-01-26T00:38:14.811Z,100.00
2023-01-26T00:40:41.378Z,100.00
2023-01-26T00:43:08.009Z,100.00
2023-01-26T00:45:35.549Z,100.00
2023-01-26T00:48:05.504Z,100.00
2023-01-26T00:50:33.189Z,100.00
2023-01-26T00:53:00.366Z,100.00
2023-01-26T00:55:32.371Z,100.00
2023-01-26T00:58:07.654Z,100.00
2023-01-26T01:00:36.700Z,100.00
2023-01-26T01:03:05.768Z,100.00
2023-01-26T01:05:33.074Z,100.00
2023-01-26T01:08:00.019Z,100.00
2023-01-26T01:10:27.611Z,100.00
2023-01-26T01:12:55.128Z,100.00
2023-01-26T01:15:23.871Z,100.00
2023-01-26T01:17:50.575Z,100.00
2023-01-26T01:20:17.372Z,100.00
2023-01-26T01:22:44.014Z,100.00
2023-01-26T01:25:10.811Z,100.00
2023-01-26T01:27:37.475Z,100.00
2023-01-26T01:30:08.072Z,100.00
2023-01-26T01:32:37.353Z,100.00
2023-01-26T01:35:04.254Z,100.00
2023-01-26T01:37:31.487Z,100.00
2023-01-26T01:39:58.053Z,100.00
2023-01-26T01:42:25.461Z,100.00
2023-01-26T01:45:23.246Z,100.00
2023-01-26T01:47:50.512Z,100.00
2023-01-26T01:50:17.900Z,100.00
2023-01-26T01:52:44.827Z,100.00
2023-01-26T01:55:14.589Z,100.00
2023-01-26T01:57:45.761Z,100.00
2023-01-26T02:00:18.653Z,100.00
2023-01-26T02:03:14.198Z,100.00
2023-01-26T02:05:59.092Z,100.00
2023-01-26T02:08:31.870Z,100.00
2023-01-26T02:11:02.220Z,100.00
2023-01-26T02:13:31.678Z,100.00
2023-01-26T02:15:59.772Z,100.00
2023-01-26T02:18:27.502Z,100.00
2023-01-26T02:20:59.157Z,100.00
2023-01-26T02:23:31.721Z,100.00
2023-01-26T02:25:58.151Z,100.00
2023-01-26T02:28:27.420Z,100.00
2023-01-26T02:30:55.939Z,100.00
2023-01-26T02:33:25.675Z,100.00
2023-01-26T02:35:55.672Z,100.00
2023-01-26T02:38:25.214Z,100.00
2023-01-26T02:41:00.282Z,100.00
2023-01-26T02:43:28.208Z,100.00
2023-01-26T02:45:55.447Z,100.00
2023-01-26T02:48:41.212Z,100.00
2023-01-26T02:51:08.197Z,100.00
2023-01-26T02:53:34.982Z,100.00
2023-01-26T02:56:01.572Z,100.00
2023-01-26T02:58:28.259Z,100.00
2023-01-26T03:00:54.976Z,100.00
2023-01-26T03:03:25.376Z,100.00
2023-01-26T03:05:52.368Z,100.00
2023-01-26T03:08:19.039Z,100.00
2023-01-26T03:10:47.555Z,100.00
2023-01-26T03:13:14.488Z,100.00
2023-01-26T03:15:52.584Z,100.00
2023-01-26T03:18:41.686Z,100.00
2023-01-26T03:21:35.045Z,100.00
2023-01-26T03:24:20.974Z,100.00
2023-01-26T03:27:07.416Z,100.00
2023-01-26T03:29:34.835Z,100.00
2023-01-26T03:32:02.340Z,100.00
2023-01-26T03:34:29.645Z,100.00
2023-01-26T03:36:57.219Z,100.00
2023-01-26T03:39:42.705Z,100.00
2023-01-26T03:42:28.575Z,100.00
2023-01-26T03:45:13.823Z,100.00
2023-01-26T03:48:01.209Z,100.00
2023-01-26T03:50:48.089Z,100.00
2023-01-26T03:53:36.631Z,100.00
2023-01-26T03:56:23.184Z,100.00
2023-01-26T03:58:57.082Z,100.00
2023-01-26T04:01:28.134Z,100.00
2023-01-26T04:04:16.411Z,100.00
2023-01-26T04:07:05.292Z,100.00
2023-01-26T04:09:33.005Z,100.00
2023-01-26T04:12:00.357Z,100.00
2023-01-26T04:14:49.915Z,100.00
2023-01-26T04:17:37.928Z,100.00
2023-01-26T04:20:24.872Z,100.00
2023-01-26T04:22:51.607Z,100.00
2023-01-26T04:25:20.930Z,100.00
2023-01-26T04:27:47.747Z,100.00
2023-01-26T04:30:17.025Z,100.00
2023-01-26T04:32:44.214Z,100.00
2023-01-26T04:35:11.232Z,100.00
2023-01-26T04:37:39.050Z,100.00
2023-01-26T04:40:06.996Z,100.00
2023-01-26T04:42:35.351Z,100.00
2023-01-26T04:45:04.578Z,100.00
2023-01-26T04:47:31.843Z,100.00
2023-01-26T04:49:58.528Z,100.00
2023-01-26T04:52:25.262Z,100.00
2023-01-26T04:54:51.822Z,100.00
2023-01-26T04:57:21.133Z,100.00
2023-01-26T04:59:50.246Z,100.00
2023-01-26T05:02:18.615Z,100.00
2023-01-26T05:04:45.224Z,100.00
2023-01-26T05:07:13.612Z,100.00
2023-01-26T05:09:40.387Z,100.00
2023-01-26T05:12:43.439Z,100.00
2023-01-26T05:15:32.585Z,100.00
2023-01-26T05:18:13.226Z,100.00
2023-01-26T05:20:55.588Z,100.00
2023-01-26T05:23:26.911Z,100.00
2023-01-26T05:26:14.613Z,100.00
2023-01-26T05:28:53.401Z,100.00
2023-01-26T05:31:20.096Z,100.00
2023-01-26T05:33:47.216Z,100.00
2023-01-26T05:36:19.382Z,100.00
2023-01-26T05:38:47.212Z,100.00
2023-01-26T05:41:15.042Z,100.00
2023-01-26T05:43:54.659Z,100.00
2023-01-26T05:46:34.559Z,100.00
2023-01-26T05:49:02.354Z,100.00
2023-01-26T05:51:29.755Z,100.00
2023-01-26T05:53:56.404Z,100.00
2023-01-26T05:56:23.032Z,100.00
2023-01-26T05:58:54.897Z,100.00
2023-01-26T06:01:21.652Z,100.00
2023-01-26T06:03:55.802Z,100.00
2023-01-26T06:06:22.763Z,100.00
2023-01-26T06:09:00.017Z,100.00
2023-01-26T06:11:33.262Z,100.00
2023-01-26T06:14:26.040Z,100.00
2023-01-26T06:16:54.421Z,100.00
2023-01-26T06:19:21.070Z,100.00
2023-01-26T06:21:53.500Z,100.00
2023-01-26T06:24:20.712Z,100.00
2023-01-26T06:26:49.336Z,100.00
2023-01-26T06:29:17.312Z,100.00
2023-01-26T06:31:44.107Z,100.00
2023-01-26T06:34:11.691Z,100.00
2023-01-26T06:36:41.584Z,100.00
2023-01-26T06:39:12.213Z,100.00
2023-01-26T06:41:43.107Z,100.00
2023-01-26T06:44:10.184Z,100.00
2023-01-26T06:46:37.057Z,100.00
2023-01-26T06:49:05.067Z,100.00
2023-01-26T06:51:56.116Z,100.00
2023-01-26T06:54:31.264Z,100.00
2023-01-26T06:57:21.135Z,100.00
2023-01-26T07:00:07.047Z,100.00
2023-01-26T07:02:54.418Z,100.00
2023-01-26T07:05:21.133Z,100.00
2023-01-26T07:07:47.813Z,100.00
2023-01-26T07:10:14.587Z,100.00
2023-01-26T07:12:43.714Z,100.00
2023-01-26T07:15:11.751Z,100.00
2023-01-26T07:17:40.107Z,100.00
2023-01-26T07:20:07.897Z,100.00
2023-01-26T07:22:34.482Z,100.00
2023-01-26T07:25:01.079Z,100.00
2023-01-26T07:27:27.627Z,100.00
2023-01-26T07:29:54.178Z,100.00
2023-01-26T07:32:20.819Z,100.00
2023-01-26T07:34:48.275Z,100.00
2023-01-26T07:37:16.343Z,100.00
2023-01-26T07:39:42.954Z,100.00
2023-01-26T07:42:11.148Z,100.00
2023-01-26T07:44:48.964Z,100.00
2023-01-26T07:47:15.807Z,100.00
2023-01-26T07:49:42.381Z,100.00
2023-01-26T07:52:09.243Z,100.00
2023-01-26T07:54:35.821Z,100.00
2023-01-26T07:57:02.370Z,100.00
2023-01-26T07:59:29.009Z,100.00
2023-01-26T08:01:55.677Z,100.00
2023-01-26T08:04:22.315Z,100.00
2023-01-26T08:06:51.477Z,100.00
2023-01-26T08:09:18.458Z,100.00
2023-01-26T08:11:45.051Z,100.00
2023-01-26T08:14:11.599Z,100.00
2023-01-26T08:16:38.236Z,100.00
2023-01-26T08:19:04.927Z,100.00
2023-01-26T08:21:31.516Z,100.00
2023-01-26T08:24:01.970Z,100.00
2023-01-26T08:26:29.408Z,100.00
2023-01-26T08:28:56.069Z,100.00
2023-01-26T08:31:24.265Z,100.00
2023-01-26T08:33:52.428Z,100.00
2023-01-26T08:36:22.105Z,100.00
2023-01-26T08:38:49.542Z,100.00
2023-01-26T08:41:16.097Z,100.00
2023-01-26T08:43:42.736Z,100.00
2023-01-26T08:46:10.189Z,100.00
2023-01-26T08:48:37.416Z,100.00
2023-01-26T08:51:05.558Z,100.00
2023-01-26T08:53:33.511Z,100.00
2023-01-26T08:56:05.859Z,100.00
2023-01-26T08:58:33.716Z,100.00
2023-01-26T09:01:04.731Z,100.00
2023-01-26T09:03:31.546Z,100.00
2023-01-26T09:06:01.928Z,100.00
2023-01-26T09:08:28.785Z,100.00
2023-01-26T09:10:55.986Z,100.00
2023-01-26T09:13:22.799Z,100.00
2023-01-26T09:15:49.472Z,100.00
2023-01-26T09:18:16.376Z,100.00
2023-01-26T09:20:42.968Z,100.00
2023-01-26T09:23:10.239Z,100.00
2023-01-26T09:25:37.536Z,100.00
2023-01-26T09:28:05.677Z,100.00
2023-01-26T09:30:33.023Z,100.00
2023-01-26T09:33:04.859Z,100.00
2023-01-26T09:35:31.629Z,100.00
2023-01-26T09:37:58.217Z,100.00
2023-01-26T09:41:15.983Z,100.00
2023-01-26T09:43:55.172Z,100.00
2023-01-26T09:46:24.174Z,100.00
2023-01-26T09:49:13.681Z,100.00
2023-01-26T09:51:48.555Z,100.00
2023-01-26T09:54:36.607Z,100.00
2023-01-26T09:57:12.634Z,100.00
2023-01-26T09:59:46.581Z,100.00
2023-01-26T10:02:13.113Z,100.00
2023-01-26T10:04:45.381Z,100.00
2023-01-26T10:07:13.988Z,100.00
2023-01-26T10:09:49.826Z,100.00
2023-01-26T10:12:24.379Z,100.00
2023-01-26T10:15:03.287Z,100.00
2023-01-26T10:17:36.690Z,100.00
2023-01-26T10:20:12.454Z,100.00
2023-01-26T10:22:56.281Z,100.00
2023-01-26T10:25:34.889Z,100.00
2023-01-26T10:28:27.232Z,100.00
2023-01-26T10:30:54.089Z,100.00
2023-01-26T10:33:27.103Z,100.00
2023-01-26T10:35:54.016Z,100.00
2023-01-26T10:38:32.533Z,100.00
2023-01-26T10:41:14.866Z,100.00
2023-01-26T10:43:43.270Z,100.00
2023-01-26T10:46:38.124Z,100.00
2023-01-26T10:49:19.918Z,100.00
2023-01-26T10:52:07.182Z,100.00
2023-01-26T10:54:36.844Z,100.00
2023-01-26T10:57:07.325Z,100.00
2023-01-26T10:59:49.304Z,100.00
2023-01-26T11:02:15.822Z,100.00
2023-01-26T11:05:07.082Z,100.00
2023-01-26T11:07:38.563Z,100.00
2023-01-26T11:10:25.465Z,100.00
2023-01-26T11:13:07.330Z,100.00
2023-01-26T11:15:41.173Z,100.00
2023-01-26T11:18:44.477Z,100.00
2023-01-26T11:21:37.190Z,100.00
2023-01-26T11:24:13.704Z,100.00
2023-01-26T11:26:49.097Z,100.00
2023-01-26T11:29:32.235Z,100.00
2023-01-26T11:32:13.865Z,100.00
2023-01-26T11:34:52.180Z,100.00
2023-01-26T11:37:47.656Z,100.00
2023-01-26T11:40:30.106Z,99.38
2023-01-26T11:42:56.687Z,98.25
2023-01-26T11:45:50.516Z,98.18
2023-01-26T11:48:43.079Z,98.78
2023-01-26T11:51:26.082Z,97.59
2023-01-26T11:54:17.889Z,97.51
2023-01-26T11:57:11.857Z,98.27
2023-01-26T11:59:50.434Z,97.25
2023-01-26T12:02:35.743Z,97.45
2023-01-26T12:05:13.667Z,96.81
2023-01-26T12:07:54.698Z,96.40
2023-01-26T12:10:29.697Z,96.15
2023-01-26T12:13:21.041Z,96.03
2023-01-26T12:15:54.695Z,94.94
2023-01-26T12:18:50.605Z,95.73
2023-01-26T12:21:21.283Z,96.03
2023-01-26T12:23:51.486Z,94.95
2023-01-26T12:26:22.585Z,94.97
2023-01-26T12:29:06.440Z,95.18
2023-01-26T12:32:04.749Z,95.87
2023-01-26T12:34:33.897Z,96.08
2023-01-26T12:37:06.153Z,97.58
2023-01-26T12:39:39.872Z,98.34
2023-01-26T12:42:15.555Z,98.05
2023-01-26T12:44:50.386Z,98.85
2023-01-26T12:47:29.558Z,99.41
2023-01-26T12:50:15.608Z,99.55
2023-01-26T12:52:55.820Z,99.32
2023-01-26T12:55:28.641Z,98.57
2023-01-26T12:58:00.794Z,97.81
2023-01-26T13:00:34.367Z,97.84
2023-01-26T13:03:07.694Z,97.86
2023-01-26T13:05:36.049Z,97.86
2023-01-26T13:08:30.822Z,98.14
2023-01-26T13:11:04.785Z,98.69
2023-01-26T13:13:52.462Z,98.18
2023-01-26T13:16:19.044Z,98.63
2023-01-26T13:18:56.883Z,99.60
2023-01-26T13:21:35.689Z,100.00
2023-01-26T13:24:02.390Z,100.00
2023-01-26T13:26:31.973Z,100.00
2023-01-26T13:29:29.307Z,99.80
2023-01-26T13:31:59.795Z,99.83
2023-01-26T13:34:48.339Z,100.00
2023-01-26T13:37:28.707Z,100.00
2023-01-26T13:40:00.241Z,100.00
2023-01-26T13:42:36.655Z,100.00
2023-01-26T13:45:08.473Z,100.00
2023-01-26T13:47:43.575Z,100.00
2023-01-26T13:50:23.971Z,100.00
2023-01-26T13:52:51.100Z,100.00
2023-01-26T13:55:30.952Z,100.00
2023-01-26T13:58:27.607Z,100.00
2023-01-26T14:01:14.227Z,100.00
2023-01-26T14:03:41.060Z,100.00
2023-01-26T14:06:13.700Z,100.00
2023-01-26T14:08:45.186Z,100.00
2023-01-26T14:11:19.724Z,100.00
2023-01-26T14:13:51.935Z,100.00
2023-01-26T14:16:43.493Z,100.00
2023-01-26T14:19:19.928Z,100.00
2023-01-26T14:21:54.192Z,100.00
2023-01-26T14:24:29.686Z,100.00
2023-01-26T14:26:56.358Z,100.00
2023-01-26T14:29:25.180Z,100.00
2023-01-26T14:31:54.785Z,100.00
2023-01-26T14:34:23.876Z,100.00
2023-01-26T14:37:13.879Z,100.00
2023-01-26T14:39:42.870Z,100.00
2023-01-26T14:42:14.565Z,100.00
2023-01-26T14:44:41.450Z,100.00
2023-01-26T14:47:24.911Z,100.00
2023-01-26T14:49:54.302Z,100.00
2023-01-26T14:52:27.093Z,100.00
2023-01-26T14:54:57.539Z,100.00
2023-01-26T14:57:26.620Z,100.00
2023-01-26T14:59:56.672Z,100.00
2023-01-26T15:02:37.262Z,100.00
2023-01-26T15:05:31.939Z,100.00
2023-01-26T15:08:05.399Z,100.00
2023-01-26T15:10:41.447Z,100.00
2023-01-26T15:13:10.939Z,100.00
2023-01-26T15:15:48.687Z,100.00
2023-01-26T15:18:19.461Z,100.00
2023-01-26T15:21:00.241Z,100.00
2023-01-26T15:23:32.199Z,100.00
2023-01-26T15:26:15.076Z,100.00
2023-01-26T15:28:42.010Z,100.00
2023-01-26T15:31:20.440Z,100.00
2023-01-26T15:33:49.672Z,100.00
2023-01-26T15:36:28.520Z,100.00
2023-01-26T15:39:00.074Z,100.00
2023-01-26T15:41:27.847Z,100.00
2023-01-26T15:43:54.767Z,100.00
2023-01-26T15:46:21.383Z,100.00
2023-01-26T15:48:48.688Z,100.00
2023-01-26T15:51:15.746Z,100.00
2023-01-26T15:53:42.385Z,100.00
2023-01-26T15:56:14.268Z,100.00
2023-01-26T15:58:41.707Z,100.00
2023-01-26T16:01:14.761Z,100.00
2023-01-26T16:03:41.674Z,100.00
2023-01-26T16:06:19.456Z,100.00
2023-01-26T16:08:46.087Z,100.00
2023-01-26T16:11:13.890Z,100.00
2023-01-26T16:13:44.414Z,100.00
2023-01-26T16:16:13.770Z,100.00
2023-01-26T16:18:42.138Z,100.00
2023-01-26T16:21:20.958Z,100.00
2023-01-26T16:23:48.182Z,100.00
2023-01-26T16:26:17.809Z,100.00
2023-01-26T16:28:45.665Z,100.00
2023-01-26T16:31:21.488Z,100.00
2023-01-26T16:33:49.189Z,100.00
2023-01-26T16:36:17.352Z,100.00
2023-01-26T16:38:44.857Z,100.00
2023-01-26T16:41:31.830Z,100.00
2023-01-26T16:44:00.276Z,100.00
2023-01-26T16:46:28.896Z,100.00
2023-01-26T16:48:56.206Z,100.00
2023-01-26T16:51:29.349Z,100.00
2023-01-26T16:53:56.587Z,100.00
2023-01-26T16:56:24.879Z,100.00
2023-01-26T16:58:51.782Z,100.00
2023-01-26T17:01:24.204Z,100.00
2023-01-26T17:03:51.801Z,100.00
2023-01-26T17:06:19.451Z,100.00
2023-01-26T17:08:46.496Z,100.00
2023-01-26T17:11:21.489Z,100.00
2023-01-26T17:13:48.510Z,100.00
2023-01-26T17:16:21.051Z,100.00
2023-01-26T17:18:48.922Z,100.00
2023-01-26T17:21:17.253Z,100.00
2023-01-26T17:23:46.714Z,100.00
2023-01-26T17:26:16.830Z,100.00
2023-01-26T17:28:49.018Z,100.00
2023-01-26T17:31:20.662Z,100.00
2023-01-26T17:33:48.888Z,100.00
2023-01-26T17:36:16.804Z,100.00
2023-01-26T17:38:43.943Z,100.00
2023-01-26T17:41:10.577Z,100.00
2023-01-26T17:43:37.127Z,100.00
2023-01-26T17:46:15.565Z,100.00
2023-01-26T17:48:45.223Z,100.00
2023-01-26T17:51:19.829Z,100.00
2023-01-26T17:53:49.692Z,100.00
2023-01-26T17:56:19.416Z,100.00
2023-01-26T17:58:51.133Z,100.00
2023-01-26T18:01:19.097Z,100.00
2023-01-26T18:03:45.792Z,100.00
2023-01-26T18:06:12.625Z,100.00
2023-01-26T18:08:40.109Z,100.00
2023-01-26T18:11:09.952Z,100.00
2023-01-26T18:13:36.907Z,100.00
2023-01-26T18:16:06.156Z,100.00
2023-01-26T18:18:32.889Z,100.00
2023-01-26T18:21:16.830Z,100.00
2023-01-26T18:23:48.219Z,100.00
2023-01-26T18:26:16.899Z,100.00
2023-01-26T18:28:44.233Z,100.00
2023-01-26T18:31:17.013Z,100.00
2023-01-26T18:33:44.362Z,100.00
2023-01-26T18:36:12.653Z,100.00
2023-01-26T18:38:40.306Z,100.00
2023-01-26T18:41:14.991Z,100.00
2023-01-26T18:43:42.986Z,100.00
2023-01-26T18:46:10.912Z,100.00
2023-01-26T18:48:37.827Z,100.00
2023-01-26T18:51:05.076Z,100.00
2023-01-26T18:53:31.659Z,100.00
2023-01-26T18:56:12.480Z,100.00
2023-01-26T18:58:40.050Z,100.00
2023-01-26T19:01:10.477Z,100.00
2023-01-26T19:03:38.459Z,100.00
2023-01-26T19:06:06.055Z,100.00
2023-01-26T19:08:34.307Z,100.00
2023-01-26T19:11:08.196Z,100.00
2023-01-26T19:13:35.822Z,100.00
2023-01-26T19:16:02.694Z,100.00
2023-01-26T19:18:29.443Z,100.00
2023-01-26T19:21:01.550Z,100.00
2023-01-26T19:23:28.754Z,100.00
2023-01-26T19:25:55.602Z,100.00
2023-01-26T19:28:22.265Z,100.00
2023-01-26T19:30:48.881Z,100.00
2023-01-26T19:33:24.510Z,100.00
2023-01-26T19:35:54.663Z,100.00
2023-01-26T19:38:21.534Z,100.00
2023-01-26T19:40:50.127Z,100.00
2023-01-26T19:43:19.091Z,100.00
2023-01-26T19:45:50.585Z,100.00
2023-01-26T19:48:17.246Z,100.00
2023-01-26T19:50:43.860Z,100.00
2023-01-26T19:53:11.164Z,100.00
2023-01-26T19:55:37.738Z,100.00
2023-01-26T19:58:04.323Z,100.00
2023-01-26T20:00:30.994Z,100.00
2023-01-26T20:02:57.715Z,100.00
2023-01-26T20:05:24.360Z,100.00
2023-01-26T20:07:51.020Z,100.00
2023-01-26T20:10:17.645Z,100.00
2023-01-26T20:12:44.273Z,100.00
2023-01-26T20:15:12.458Z,100.00
2023-01-26T20:17:39.189Z,100.00
2023-01-26T20:20:06.402Z,100.00
2023-01-26T20:22:34.158Z,100.00
2023-01-26T20:25:00.876Z,100.00
2023-01-26T20:27:29.279Z,100.00
2023-01-26T20:29:56.259Z,100.00
2023-01-26T20:32:22.966Z,100.00
2023-01-26T20:34:49.907Z,100.00
2023-01-26T20:37:16.564Z,100.00
2023-01-26T20:39:46.654Z,100.00
2023-01-26T20:42:16.555Z,100.00
2023-01-26T20:44:43.533Z,100.00
2023-01-26T20:47:10.792Z,100.00
2023-01-26T20:49:37.461Z,100.00
2023-01-26T20:52:07.653Z,100.00
2023-01-26T20:54:37.637Z,100.00
2023-01-26T20:57:04.225Z,100.00
2023-01-26T20:59:31.078Z,100.00
2023-01-26T21:01:57.762Z,100.00
2023-01-26T21:04:24.414Z,100.00
2023-01-26T21:06:51.070Z,100.00
2023-01-26T21:09:17.758Z,100.00
2023-01-26T21:11:44.316Z,100.00
2023-01-26T21:14:13.505Z,100.00
2023-01-26T21:16:40.386Z,100.00
2023-01-26T21:19:07.113Z,100.00
2023-01-26T21:21:33.870Z,100.00
2023-01-26T21:24:00.588Z,100.00
2023-01-26T21:26:27.892Z,100.00
2023-01-26T21:28:56.813Z,100.00
2023-01-26T21:31:25.603Z,100.00
2023-01-26T21:33:53.210Z,100.00
2023-01-26T21:36:22.440Z,100.00
2023-01-26T21:38:51.972Z,100.00
2023-01-26T21:41:40.238Z,100.00
2023-01-26T21:44:06.785Z,100.00
2023-01-26T21:46:33.643Z,100.00
2023-01-26T21:49:00.541Z,100.00
2023-01-26T21:51:46.540Z,100.00
2023-01-26T21:54:14.151Z,100.00
2023-01-26T21:56:40.882Z,100.00
2023-01-26T21:59:10.556Z,100.00
2023-01-26T22:01:39.554Z,100.00
2023-01-26T22:04:08.654Z,100.00
2023-01-26T22:06:37.194Z,100.00
2023-01-26T22:09:05.300Z,100.00
2023-01-26T22:11:32.370Z,100.00
2023-01-26T22:13:59.102Z,100.00
2023-01-26T22:16:26.292Z,100.00
2023-01-26T22:18:52.874Z,100.00
2023-01-26T22:21:20.228Z,100.00
2023-01-26T22:23:47.175Z,100.00
2023-01-26T22:26:19.615Z,100.00
2023-01-26T22:28:52.833Z,100.00
2023-01-26T22:31:22.881Z,100.00
2023-01-26T22:33:50.370Z,100.00
2023-01-26T22:36:17.223Z,100.00
2023-01-26T22:38:43.865Z,100.00
2023-01-26T22:41:21.171Z,100.00
2023-01-26T22:43:49.039Z,100.00
2023-01-26T22:46:17.525Z,100.00
2023-01-26T22:48:44.421Z,100.00
2023-01-26T22:51:18.166Z,100.00
2023-01-26T22:53:45.208Z,100.00
2023-01-26T22:56:12.353Z,100.00
2023-01-26T22:58:56.618Z,100.00
2023-01-26T23:01:25.018Z,100.00
2023-01-26T23:03:53.476Z,100.00
2023-01-26T23:06:20.553Z,100.00
2023-01-26T23:08:47.412Z,100.00
2023-01-26T23:11:23.429Z,100.00
2023-01-26T23:13:51.879Z,100.00
2023-01-26T23:16:18.854Z,100.00
2023-01-26T23:18:45.738Z,100.00
2023-01-26T23:21:12.382Z,100.00
2023-01-26T23:23:40.964Z,100.00
2023-01-26T23:26:08.699Z,100.00
2023-01-26T23:28:38.021Z,100.00
2023-01-26T23:31:05.104Z,99.96
2023-01-26T23:33:33.969Z,100.00
2023-01-26T23:36:00.913Z,100.00
2023-01-26T23:38:29.076Z,100.00
2023-01-26T23:40:56.339Z,100.00
2023-01-26T23:43:23.616Z,100.00
2023-01-26T23:45:50.838Z,100.00
2023-01-26T23:48:18.127Z,100.00
2023-01-26T23:50:45.058Z,100.00
2023-01-26T23:53:12.302Z,99.55
2023-01-26T23:55:43.104Z,99.67
2023-01-26T23:58:11.157Z,99.22
